Flight Track Log - Related Links

Times and Time Zones

All times are in EDT time to prevent confusion due to time zone crossing. See the ASQ6115 flight status page for this flight to view local times or setup timezone preferences in your user account.

Time Position Orientation Groundspeed Altitude Reporting Facility
EDT Latitude Longitude Course Direction KTS MPH feet Rate Location/Type
Tue 20:15:20 42.9978 -89.2925 163° South 219 252 6,800  Level Chicago Center
Tue 20:16:00 42.8739 -89.2239 144° Southeast  Level FlightAware Approximate
Tue 20:16:22 42.9322 -89.3236 199° South 262 302 9,400  Level Chicago Center
Tue 20:17:00 42.8090 -89.1981 170° South  Level FlightAware Approximate
Tue 20:17:24 42.8889 -89.4028 233° Southwest 265 305 10,900  Level Chicago Center
Tue 20:18:00 42.7422 -89.1798 162° South  Level FlightAware Approximate
Tue 20:18:26 42.8064 -89.4006 179° South 306 352 11,100  Level Chicago Center
Tue 20:19:00 42.6692 -89.1474 162° South  Level FlightAware Approximate
Tue 20:19:28 42.7233 -89.3900 175° South 302 348 11,100  Level Chicago Center
Tue 20:20:30 42.6233 -89.3586 167° South 320 368 11,100 -48 Level Chicago Center
Tue 20:21:32 42.5842 -89.2472 115° Southeast 347 399 11,000 -48 Descending Chicago Center
Tue 20:22:34 42.5608 -89.1225 104° East 346 398 11,000  Level Chicago Center
Tue 20:23:35 42.5278 -89.0056 111° Southeast 338 389 11,000  Level Chicago Center
Tue 20:24:37 42.4964 -88.9003 112° Southeast 312 359 11,000 -387 Level Chicago Center
Tue 20:25:39 42.4589 -88.7781 113° Southeast 304 350 10,200 -919 Descending Chicago Center
Tue 20:26:41 42.4275 -88.6750 112° Southeast 299 344 9,100 -581 Descending Chicago Center
Tue 20:27:43 42.3958 -88.5725 113° Southeast 297 342 9,000 -145 Descending Chicago Center
Tue 20:28:45 42.3633 -88.4708 113° Southeast 295 339 8,800 -726 Descending Chicago Center
Tue 20:29:47 42.3264 -88.3544 113° Southeast 297 342 7,500 -871 Descending Chicago Center
Tue 20:30:49 42.2858 -88.2672 122° Southeast 289 333 7,000 -242 Descending Chicago Center
Tue 20:31:51 42.2272 -88.2031 141° Southeast 279 321 7,000 -629 Level Chicago Center
Tue 20:32:53 42.1753 -88.1397 138° Southeast 260 299 5,700 -1,306 Descending Chicago Center
Tue 20:33:55 42.1306 -88.0908 141° Southeast 221 254 4,300 -1,483 Descending Chicago Center
Tue 20:34:22 42.1000 -88.0667 150° Southeast 208 239 3,500 -1,241 Descending Chicago TRACON
Tue 20:35:22 42.0667 -88.0167 132° Southeast 187 215 2,500 -1,000 Descending Chicago TRACON

Login

Don't have an account? Register now (free) for customized features, flight alerts, and more!